Time;durP1;ratioP1;P1;durP2;ratioP2;P2;SDS_P1;SDS_P2;PMS_P1;PMS_P2;Temp;Humidity;BMP_temperature;BMP_pressure;BME280_temperature;BME280_humidity;BME280_pressure;Samples;Min_cycle;Max_cycle;Signal;HPM_P1;HPM_P2
2021/09/15 00:00:32;;;;;;;9.53;8.83;;;21.70;38.00;;;;;;10357700;28;20225;-80
2021/09/15 00:05:35;;;;;;;8.10;7.50;;;21.70;38.50;;;;;;10356913;28;20233;-80
2021/09/15 00:10:38;;;;;;;9.37;8.60;;;21.70;38.00;;;;;;10365623;28;20222;-80
2021/09/15 00:15:43;;;;;;;9.03;8.33;;;21.70;38.20;;;;;;10358796;28;20230;-80
2021/09/15 00:20:46;;;;;;;8.67;8.07;;;21.70;39.00;;;;;;10360330;28;20218;-80
2021/09/15 00:25:49;;;;;;;9.23;8.33;;;21.70;38.30;;;;;;10370209;28;20226;-77
2021/09/15 00:30:54;;;;;;;9.00;8.30;;;21.70;38.00;;;;;;10359405;28;20733;-80
2021/09/15 00:35:57;;;;;;;8.70;8.00;;;21.70;38.90;;;;;;10365493;28;20226;-80
2021/09/15 00:41:00;;;;;;;8.93;8.10;;;21.70;38.40;;;;;;10358970;28;20218;-80
2021/09/15 00:46:05;;;;;;;8.07;7.47;;;21.70;38.40;;;;;;10353624;28;20225;-79
2021/09/15 00:51:08;;;;;;;8.53;7.93;;;21.70;39.10;;;;;;10357176;28;20227;-79
2021/09/15 00:56:11;;;;;;;8.23;7.63;;;21.70;38.70;;;;;;10357506;28;20234;-79
2021/09/15 01:01:15;;;;;;;8.87;8.07;;;21.70;38.60;;;;;;10359512;28;20249;-79
2021/09/15 01:06:19;;;;;;;8.30;7.60;;;21.70;39.30;;;;;;10361764;28;20233;-79
2021/09/15 01:11:22;;;;;;;7.63;7.03;;;21.70;38.60;;;;;;10355616;28;20242;-79
2021/09/15 01:16:27;;;;;;;7.57;6.97;;;21.70;38.80;;;;;;10358391;28;20241;-79
2021/09/15 01:21:31;;;;;;;8.23;7.53;;;21.70;39.10;;;;;;10358215;28;20249;-79
2021/09/15 01:26:35;;;;;;;7.80;7.20;;;21.70;39.30;;;;;;10364305;28;20230;-80
2021/09/15 01:31:38;;;;;;;7.70;7.00;;;21.70;38.70;;;;;;10358248;28;20230;-78
2021/09/15 01:36:43;;;;;;;7.27;6.67;;;21.70;38.70;;;;;;10354088;28;20240;-78
2021/09/15 01:41:46;;;;;;;8.07;7.37;;;21.70;39.00;;;;;;10367470;28;20233;-78
2021/09/15 01:46:49;;;;;;;8.97;8.27;;;21.70;38.90;;;;;;10350938;28;20231;-78
2021/09/15 01:51:53;;;;;;;8.57;7.97;;;21.60;38.90;;;;;;10354519;28;20796;-78
2021/09/15 01:56:57;;;;;;;9.20;8.50;;;21.60;39.40;;;;;;10347872;28;20226;-78
2021/09/15 02:02:00;;;;;;;8.60;7.83;;;21.60;39.10;;;;;;10357576;28;20226;-78
2021/09/15 02:07:05;;;;;;;8.87;8.17;;;21.50;39.10;;;;;;10356679;28;20649;-77
2021/09/15 02:12:09;;;;;;;8.80;8.07;;;21.50;39.70;;;;;;10351755;28;20234;-78
2021/09/15 02:17:12;;;;;;;7.50;6.90;;;21.40;39.10;;;;;;10354631;28;20238;-78
2021/09/15 02:22:17;;;;;;;8.30;7.70;;;21.40;39.10;;;;;;10351534;28;20238;-77
2021/09/15 02:27:20;;;;;;;8.80;8.10;;;21.30;39.50;;;;;;10360853;28;20230;-78
2021/09/15 02:32:23;;;;;;;8.90;8.10;;;21.30;39.30;;;;;;10354556;28;20740;-78
2021/09/15 02:37:28;;;;;;;9.63;8.83;;;21.30;39.30;;;;;;10356945;28;20897;-78
2021/09/15 02:42:31;;;;;;;8.47;7.77;;;21.30;39.90;;;;;;10353988;28;20708;-78
2021/09/15 02:47:34;;;;;;;8.83;8.03;;;21.30;39.40;;;;;;10350912;28;20299;-78
2021/09/15 02:52:39;;;;;;;8.73;8.03;;;21.30;40.10;;;;;;10356703;28;20249;-78
2021/09/15 02:57:42;;;;;;;8.10;7.40;;;21.20;39.50;;;;;;10363294;28;20245;-78
2021/09/15 03:02:46;;;;;;;8.97;8.27;;;21.10;39.10;;;;;;10354629;28;20257;-78
2021/09/15 03:07:50;;;;;;;7.50;7.00;;;21.10;39.30;;;;;;10347474;28;20222;-78
2021/09/15 03:12:53;;;;;;;8.93;8.13;;;21.10;39.50;;;;;;10360127;28;20234;-78
2021/09/15 03:17:56;;;;;;;8.23;7.63;;;21.00;39.20;;;;;;10349880;28;20602;-79
2021/09/15 03:23:01;;;;;;;6.53;6.07;;;21.00;39.30;;;;;;10347003;28;20226;-78
2021/09/15 03:28:04;;;;;;;8.00;7.30;;;21.00;39.40;;;;;;10362154;28;20230;-79
2021/09/15 03:33:07;;;;;;;8.03;7.33;;;20.90;39.30;;;;;;10363067;28;20227;-80
2021/09/15 03:38:12;;;;;;;8.20;7.50;;;20.90;39.10;;;;;;10364798;28;20272;-80
2021/09/15 03:43:15;;;;;;;7.43;6.90;;;20.80;39.50;;;;;;10358305;28;20238;-78
2021/09/15 03:48:18;;;;;;;7.53;6.93;;;20.80;39.40;;;;;;10359480;28;20226;-78
2021/09/15 03:53:23;;;;;;;7.50;6.90;;;20.70;39.30;;;;;;10353195;28;20238;-80
2021/09/15 03:58:26;;;;;;;9.03;8.13;;;20.70;39.70;;;;;;10360280;28;20235;-78
2021/09/15 04:03:30;;;;;;;7.90;7.30;;;20.70;39.50;;;;;;10360627;28;20639;-78
2021/09/15 04:08:34;;;;;;;8.47;7.80;;;20.70;39.60;;;;;;10356462;28;20239;-76
2021/09/15 04:13:37;;;;;;;8.43;7.83;;;20.60;39.80;;;;;;10346670;28;20241;-78
2021/09/15 04:18:41;;;;;;;8.83;8.13;;;20.60;39.60;;;;;;10355895;28;20226;-78
2021/09/15 04:23:56;;;;;;;8.47;7.77;;;20.50;39.60;;;;;;10352759;28;20233;-78
2021/09/15 04:34:20;;;;;;;8.83;8.13;;;20.50;39.80;;;;;;10351942;28;20226;-79
2021/09/15 04:39:24;;;;;;;9.07;8.27;;;20.40;39.70;;;;;;10344471;28;20234;-79
2021/09/15 04:44:28;;;;;;;8.30;7.63;;;20.40;40.20;;;;;;10344975;28;20238;-80
2021/09/15 04:49:31;;;;;;;8.57;7.70;;;20.40;40.00;;;;;;10351787;28;20222;-80
2021/09/15 04:54:35;;;;;;;8.87;8.17;;;20.30;40.00;;;;;;10347646;28;20226;-81
2021/09/15 04:59:38;;;;;;;9.03;8.33;;;20.30;40.40;;;;;;10349542;28;20238;-82
2021/09/15 05:04:42;;;;;;;8.97;8.20;;;20.40;40.20;;;;;;10355216;28;20230;-78
2021/09/15 05:09:46;;;;;;;9.70;8.77;;;20.30;40.20;;;;;;10350916;28;20226;-79
2021/09/15 05:14:49;;;;;;;8.53;7.73;;;20.30;40.50;;;;;;10348921;28;20222;-78
2021/09/15 05:19:53;;;;;;;8.90;8.20;;;20.20;40.30;;;;;;10352106;28;20228;-82
2021/09/15 05:24:57;;;;;;;8.87;7.97;;;20.20;40.50;;;;;;10349404;28;20230;-81
2021/09/15 05:30:00;;;;;;;10.60;9.60;;;20.20;40.90;;;;;;10346129;28;20228;-80
2021/09/15 05:35:05;;;;;;;10.60;9.60;;;20.20;40.90;;;;;;10345512;28;20226;-79
2021/09/15 05:40:10;;;;;;;8.83;8.07;;;20.20;41.00;;;;;;10354570;28;20613;-77
2021/09/15 05:45:13;;;;;;;9.33;8.37;;;20.30;41.30;;;;;;10348339;28;20242;-74
2021/09/15 05:50:17;;;;;;;9.67;8.87;;;20.30;41.20;;;;;;10346263;28;20596;-73
2021/09/15 05:55:22;;;;;;;9.53;8.67;;;20.30;41.20;;;;;;10341807;28;20227;-74
2021/09/15 06:00:29;;;;;;;9.60;8.73;;;20.30;41.70;;;;;;10343428;28;20662;-73
2021/09/15 06:05:32;;;;;;;10.80;8.67;;;20.40;41.60;;;;;;10347878;28;20242;-76
2021/09/15 06:10:37;;;;;;;9.73;8.93;;;20.40;41.60;;;;;;10349747;28;20238;-74
2021/09/15 06:15:40;;;;;;;11.07;10.07;;;20.50;42.20;;;;;;10351254;28;20234;-76
2021/09/15 06:20:43;;;;;;;11.37;10.27;;;20.50;41.90;;;;;;10349409;28;20250;-76
2021/09/15 06:25:48;;;;;;;11.67;10.57;;;20.60;42.00;;;;;;10342489;28;20776;-74
2021/09/15 06:30:51;;;;;;;11.40;10.40;;;20.60;42.50;;;;;;10346209;28;20226;-74
2021/09/15 06:35:54;;;;;;;11.47;10.57;;;20.70;42.20;;;;;;10347276;28;20218;-74
2021/09/15 06:40:59;;;;;;;10.87;9.97;;;20.70;42.20;;;;;;10338459;28;20234;-76
2021/09/15 06:46:02;;;;;;;11.73;10.80;;;20.80;42.60;;;;;;10345112;28;20234;-76
2021/09/15 06:51:05;;;;;;;14.80;13.60;;;20.80;42.20;;;;;;10347084;28;20257;-76
2021/09/15 06:56:10;;;;;;;12.50;11.43;;;20.90;42.50;;;;;;10346414;28;20225;-74
2021/09/15 07:01:13;;;;;;;13.13;12.00;;;20.90;42.70;;;;;;10351794;28;20691;-76
2021/09/15 07:06:17;;;;;;;12.27;11.27;;;21.00;42.40;;;;;;10354342;28;20222;-77
2021/09/15 07:11:22;;;;;;;12.83;11.63;;;21.10;42.50;;;;;;10350351;28;20222;-77
2021/09/15 07:16:25;;;;;;;15.00;13.47;;;21.20;43.00;;;;;;10353621;28;20226;-78
2021/09/15 07:21:30;;;;;;;13.97;12.73;;;21.30;42.90;;;;;;10345487;28;20771;-78
2021/09/15 07:26:34;;;;;;;15.03;13.73;;;21.40;43.30;;;;;;10354921;28;20250;-77
2021/09/15 07:31:38;;;;;;;15.33;14.00;;;21.50;43.40;;;;;;10360266;28;20234;-75
2021/09/15 07:36:41;;;;;;;13.87;12.57;;;21.60;43.40;;;;;;10356461;28;20214;-76
2021/09/15 07:41:46;;;;;;;13.30;12.23;;;21.80;43.70;;;;;;10355156;28;20616;-76
2021/09/15 07:46:49;;;;;;;13.80;12.40;;;22.00;43.80;;;;;;10356277;28;20230;-76
2021/09/15 07:51:53;;;;;;;12.93;11.83;;;22.10;43.50;;;;;;10359035;28;20487;-74
2021/09/15 07:56:57;;;;;;;13.90;12.83;;;22.30;43.40;;;;;;10358014;28;20232;-73
2021/09/15 08:02:00;;;;;;;13.97;12.80;;;22.40;44.00;;;;;;10350797;28;20234;-76
2021/09/15 08:07:04;;;;;;;14.50;13.30;;;22.60;43.40;;;;;;10357652;28;20244;-76
2021/09/15 08:12:09;;;;;;;14.87;13.67;;;22.60;43.10;;;;;;10344163;28;20240;-76
2021/09/15 08:17:12;;;;;;;13.53;12.43;;;22.80;43.40;;;;;;10356517;28;20229;-73
2021/09/15 08:22:16;;;;;;;12.83;11.63;;;22.90;43.20;;;;;;10362835;28;20238;-74
2021/09/15 08:27:20;;;;;;;13.50;12.33;;;23.00;43.00;;;;;;10358016;28;20241;-74
2021/09/15 08:32:23;;;;;;;11.93;10.93;;;23.10;43.10;;;;;;10354373;28;20241;-76
2021/09/15 08:37:27;;;;;;;13.17;11.53;;;23.10;42.80;;;;;;10348667;28;20230;-74
2021/09/15 08:42:32;;;;;;;12.53;11.53;;;23.20;43.10;;;;;;10355780;28;20910;-73
2021/09/15 08:47:37;;;;;;;16.47;15.13;;;23.30;43.70;;;;;;10351378;28;20230;-74
2021/09/15 08:52:41;;;;;;;16.57;14.97;;;23.30;43.50;;;;;;10354467;28;20236;-74
2021/09/15 08:57:45;;;;;;;15.47;14.17;;;23.40;43.30;;;;;;10352005;28;20696;-73
2021/09/15 09:02:52;;;;;;;15.90;14.60;;;23.40;43.30;;;;;;10354322;28;20226;-74
2021/09/15 09:07:55;;;;;;;15.57;14.27;;;23.40;43.50;;;;;;10350324;28;20236;-74
2021/09/15 09:13:00;;;;;;;16.10;14.47;;;23.50;43.30;;;;;;10355586;28;20223;-73
2021/09/15 09:18:03;;;;;;;16.20;14.70;;;23.50;43.40;;;;;;10350263;28;20219;-73
2021/09/15 09:23:10;;;;;;;14.13;12.93;;;23.60;43.10;;;;;;10348391;28;20244;-75
2021/09/15 09:28:20;;;;;;;15.10;13.90;;;23.60;43.30;;;;;;10349361;28;20591;-75
2021/09/15 09:33:24;;;;;;;15.10;13.80;;;23.70;43.10;;;;;;10349878;28;20257;-75
2021/09/15 09:38:31;;;;;;;15.80;14.30;;;23.80;43.10;;;;;;10352891;28;20329;-75
2021/09/15 09:43:38;;;;;;;15.03;13.83;;;23.80;43.30;;;;;;10351899;28;20233;-76
2021/09/15 09:48:44;;;;;;;15.07;13.87;;;23.80;43.10;;;;;;10355641;28;20228;-75
2021/09/15 09:53:47;;;;;;;16.50;15.20;;;23.80;43.10;;;;;;10349149;28;20711;-75
2021/09/15 09:58:52;;;;;;;14.20;12.87;;;23.80;42.70;;;;;;10354430;28;20233;-74
2021/09/15 10:03:55;;;;;;;13.40;12.20;;;23.80;42.90;;;;;;10352763;28;20234;-74
2021/09/15 10:09:02;;;;;;;13.40;12.27;;;23.80;42.90;;;;;;10349431;28;20253;-74
2021/09/15 10:14:10;;;;;;;13.97;12.80;;;23.80;43.10;;;;;;10351004;28;20603;-73
2021/09/15 10:19:16;;;;;;;12.33;11.33;;;23.80;43.30;;;;;;10341002;28;20241;-74
2021/09/15 10:24:19;;;;;;;11.83;10.77;;;23.70;43.10;;;;;;10347728;28;20233;-75
2021/09/15 10:29:30;;;;;;;12.70;11.40;;;23.70;43.20;;;;;;10357736;28;20769;-73
2021/09/15 10:34:50;;;;;;;12.53;11.43;;;23.80;43.60;;;;;;10349370;28;20230;-74
2021/09/15 10:39:54;;;;;;;12.47;11.30;;;23.80;43.30;;;;;;10346296;28;20226;-74
2021/09/15 10:50:54;;;;;;;12.53;11.53;;;23.80;43.30;;;;;;10428753;27;21387;-76
2021/09/15 10:56:00;;;;;;;11.47;10.50;;;23.90;43.00;;;;;;10368576;28;20226;-75
2021/09/15 11:01:05;;;;;;;11.30;10.40;;;23.90;42.90;;;;;;10375600;28;20689;-75
2021/09/15 11:06:23;;;;;;;11.20;10.10;;;23.90;42.80;;;;;;10364375;28;20561;-74
2021/09/15 11:11:48;;;;;;;11.70;10.70;;;24.00;42.80;;;;;;10356419;28;20739;-75
2021/09/15 11:16:52;;;;;;;11.73;10.73;;;24.10;42.70;;;;;;10369353;28;20220;-75
2021/09/15 11:21:59;;;;;;;12.07;11.07;;;24.10;42.30;;;;;;10372708;28;20795;-75
2021/09/15 11:27:07;;;;;;;12.13;11.13;;;24.20;42.50;;;;;;10371946;28;20325;-74
2021/09/15 11:32:11;;;;;;;12.20;11.20;;;24.20;42.30;;;;;;10360904;28;20230;-74
2021/09/15 11:37:19;;;;;;;11.03;10.10;;;24.30;42.50;;;;;;10366125;28;20245;-74
2021/09/15 11:42:24;;;;;;;12.40;11.33;;;24.40;42.80;;;;;;10366157;28;20230;-74
2021/09/15 11:47:28;;;;;;;12.43;11.43;;;24.50;42.60;;;;;;10399116;28;20232;-74
2021/09/15 11:52:42;;;;;;;11.20;10.30;;;24.50;42.70;;;;;;10389262;28;20229;-74
2021/09/15 11:57:46;;;;;;;11.03;10.13;;;24.70;42.70;;;;;;10351245;28;20811;-75
2021/09/15 12:02:50;;;;;;;11.40;10.40;;;24.80;42.60;;;;;;10323291;28;20238;-75
2021/09/15 12:07:56;;;;;;;10.13;9.33;;;24.90;42.00;;;;;;10322753;28;20713;-71
2021/09/15 12:13:00;;;;;;;11.00;10.00;;;24.90;41.80;;;;;;10323771;28;20233;-75
2021/09/15 12:18:03;;;;;;;9.10;8.33;;;25.00;42.00;;;;;;10352482;28;20608;-75
2021/09/15 12:23:08;;;;;;;8.43;7.63;;;25.20;41.70;;;;;;10369255;28;20627;-75
2021/09/15 12:28:12;;;;;;;9.00;7.30;;;25.30;41.10;;;;;;10363666;28;20257;-74
2021/09/15 12:33:24;;;;;;;7.80;7.10;;;25.40;41.20;;;;;;10361558;28;20230;-74
2021/09/15 12:38:51;;;;;;;7.83;6.80;;;25.40;41.20;;;;;;10356270;28;20769;-74
2021/09/15 12:44:03;;;;;;;8.40;7.70;;;25.60;41.00;;;;;;10363479;28;20255;-73
2021/09/15 12:49:06;;;;;;;8.10;7.30;;;25.50;40.50;;;;;;10366681;28;20226;-75
2021/09/15 12:54:11;;;;;;;7.53;6.70;;;25.50;41.20;;;;;;10363879;28;20241;-72
2021/09/15 12:59:30;;;;;;;8.37;7.40;;;25.50;39.80;;;;;;10362243;28;20258;-71
2021/09/15 13:04:33;;;;;;;7.63;6.90;;;25.50;39.40;;;;;;10354891;28;20230;-72
2021/09/15 13:09:38;;;;;;;7.67;6.93;;;25.40;40.50;;;;;;10360135;28;20230;-71
2021/09/15 13:14:41;;;;;;;7.13;6.43;;;25.40;40.30;;;;;;10359626;28;20234;-71
2021/09/15 13:19:45;;;;;;;7.63;7.03;;;25.40;40.80;;;;;;10361249;28;20241;-72
2021/09/15 13:24:50;;;;;;;9.60;7.37;;;25.40;41.10;;;;;;10355539;28;20225;-71
2021/09/15 13:29:53;;;;;;;8.73;7.87;;;25.40;41.00;;;;;;10352506;28;20245;-78
2021/09/15 13:34:57;;;;;;;8.67;7.80;;;25.50;40.60;;;;;;10360672;28;20841;-78
2021/09/15 13:40:02;;;;;;;8.40;7.50;;;25.50;40.60;;;;;;10369740;28;20237;-79
2021/09/15 13:45:06;;;;;;;8.27;7.67;;;25.50;41.10;;;;;;10331786;28;20227;-79
2021/09/15 13:50:11;;;;;;;7.33;6.70;;;25.50;41.20;;;;;;10318663;28;20230;-78
2021/09/15 13:55:17;;;;;;;7.60;6.90;;;25.50;41.90;;;;;;10355449;28;20230;-78
2021/09/15 14:00:20;;;;;;;7.40;6.80;;;25.60;41.20;;;;;;10364588;28;20230;-79
2021/09/15 14:05:23;;;;;;;7.33;6.73;;;25.70;40.80;;;;;;10349694;28;20238;-78
2021/09/15 14:10:28;;;;;;;6.90;6.30;;;25.70;40.60;;;;;;10349797;28;20293;-78
2021/09/15 14:15:31;;;;;;;6.90;6.33;;;25.70;40.90;;;;;;10321593;28;20235;-78
2021/09/15 14:20:35;;;;;;;7.30;6.63;;;25.70;40.70;;;;;;10322065;28;20762;-79
2021/09/15 14:25:40;;;;;;;7.30;6.60;;;25.80;40.60;;;;;;10321542;28;20223;-77
2021/09/15 14:30:43;;;;;;;7.20;6.67;;;25.80;40.50;;;;;;10315207;28;20234;-78
2021/09/15 14:35:46;;;;;;;7.83;7.13;;;25.90;40.70;;;;;;10322900;28;20310;-77
2021/09/15 14:40:51;;;;;;;8.00;7.03;;;25.90;40.40;;;;;;10323337;28;20219;-80
2021/09/15 14:45:54;;;;;;;6.50;5.90;;;26.00;40.40;;;;;;10321979;28;20238;-80
2021/09/15 14:50:57;;;;;;;5.37;4.97;;;26.00;40.30;;;;;;10312034;28;20239;-80
2021/09/15 14:56:02;;;;;;;5.83;5.27;;;26.10;40.20;;;;;;10328703;28;20234;-76
2021/09/15 15:01:06;;;;;;;6.17;4.70;;;26.20;40.00;;;;;;10330747;28;20247;-75
2021/09/15 15:06:10;;;;;;;5.40;4.90;;;26.20;39.90;;;;;;10326010;28;20732;-76
2021/09/15 15:11:15;;;;;;;5.33;4.93;;;26.20;39.70;;;;;;10349583;28;20238;-76
2021/09/15 15:16:18;;;;;;;8.30;6.37;;;26.20;39.50;;;;;;10348212;28;20233;-76
2021/09/15 15:21:21;;;;;;;7.67;6.07;;;26.20;39.70;;;;;;10346153;28;20242;-78
2021/09/15 15:26:26;;;;;;;6.10;5.37;;;26.30;39.80;;;;;;10346294;28;20824;-79
2021/09/15 15:31:29;;;;;;;5.90;5.30;;;26.30;39.50;;;;;;10341190;28;20239;-80
2021/09/15 15:36:33;;;;;;;6.13;5.53;;;26.30;39.50;;;;;;10337398;28;20234;-79
2021/09/15 15:41:38;;;;;;;5.90;4.97;;;26.30;39.40;;;;;;10349971;28;20581;-78
2021/09/15 15:46:41;;;;;;;7.20;5.27;;;26.30;39.40;;;;;;10357485;28;20237;-80
2021/09/15 15:51:46;;;;;;;5.63;5.13;;;26.30;39.50;;;;;;10355972;28;20230;-80
2021/09/15 15:56:50;;;;;;;6.03;5.33;;;26.30;39.70;;;;;;10361018;28;20238;-80
2021/09/15 16:01:53;;;;;;;6.30;5.67;;;26.30;39.60;;;;;;10371250;28;20234;-80
2021/09/15 16:06:57;;;;;;;7.47;5.70;;;26.30;39.50;;;;;;10331760;28;20230;-80
2021/09/15 16:12:01;;;;;;;6.63;6.03;;;26.30;39.50;;;;;;10317644;28;20708;-80
2021/09/15 16:17:05;;;;;;;6.03;5.53;;;26.20;40.10;;;;;;10352755;28;20230;-80
2021/09/15 16:22:08;;;;;;;6.10;5.47;;;26.20;39.50;;;;;;10367070;28;21495;-80
2021/09/15 16:27:13;;;;;;;6.93;6.23;;;26.20;39.60;;;;;;10364407;28;20564;-81
2021/09/15 16:32:16;;;;;;;6.27;5.67;;;26.20;39.40;;;;;;10364629;28;20234;-80
2021/09/15 16:37:20;;;;;;;6.97;6.37;;;26.20;39.70;;;;;;10355545;28;21206;-81
2021/09/15 16:42:25;;;;;;;7.70;6.30;;;26.10;39.70;;;;;;10363892;28;20265;-74
2021/09/15 16:47:29;;;;;;;7.27;6.50;;;26.10;39.60;;;;;;10363646;28;20620;-74
2021/09/15 16:52:33;;;;;;;6.23;5.63;;;26.10;39.80;;;;;;10367728;28;20234;-74
2021/09/15 16:57:37;;;;;;;7.27;6.57;;;26.00;39.80;;;;;;10365521;28;20227;-74
2021/09/15 17:02:41;;;;;;;7.13;6.63;;;26.00;40.20;;;;;;10364767;28;20246;-74
2021/09/15 17:07:44;;;;;;;15.03;13.53;;;25.90;40.10;;;;;;10370757;28;20899;-74
2021/09/15 17:12:49;;;;;;;10.03;9.10;;;25.90;40.10;;;;;;10367662;28;20698;-75
2021/09/15 17:17:54;;;;;;;8.90;8.10;;;25.80;40.60;;;;;;10338219;28;20605;-75
2021/09/15 17:22:57;;;;;;;8.30;7.67;;;25.70;40.70;;;;;;10324739;28;20235;-75
2021/09/15 17:28:02;;;;;;;8.60;7.80;;;25.60;41.10;;;;;;10323560;28;20257;-76
2021/09/15 17:33:05;;;;;;;10.13;9.23;;;25.50;41.20;;;;;;10333743;28;20229;-76
2021/09/15 17:38:08;;;;;;;12.30;11.17;;;25.30;41.10;;;;;;10329341;28;20758;-75
2021/09/15 17:43:13;;;;;;;11.80;10.70;;;25.20;41.00;;;;;;10328255;28;20227;-75
2021/09/15 17:48:16;;;;;;;11.10;10.17;;;25.00;41.50;;;;;;10352858;28;20762;-75
2021/09/15 17:53:20;;;;;;;14.00;10.87;;;24.80;41.70;;;;;;10357543;28;20244;-75
2021/09/15 17:58:24;;;;;;;11.10;10.20;;;24.60;42.10;;;;;;10361008;28;20226;-75
2021/09/15 18:03:27;;;;;;;11.73;10.23;;;24.50;42.90;;;;;;10348115;28;20239;-76
2021/09/15 18:08:31;;;;;;;11.27;10.37;;;24.50;42.80;;;;;;10330096;28;20300;-77
2021/09/15 18:13:36;;;;;;;11.17;10.20;;;24.40;43.10;;;;;;10308196;28;20242;-78
2021/09/15 18:18:39;;;;;;;11.50;10.40;;;24.40;43.60;;;;;;10317313;28;20241;-78
2021/09/15 18:23:51;;;;;;;11.83;10.63;;;24.30;43.20;;;;;;10342927;28;21201;-78
2021/09/15 18:29:23;;;;;;;10.97;10.07;;;24.30;43.30;;;;;;10320710;28;20230;-79
2021/09/15 18:34:28;;;;;;;11.63;10.73;;;24.10;43.90;;;;;;10321602;28;20231;-79
2021/09/15 18:50:40;;;;;;;10.73;9.73;;;23.80;44.70;;;;;;10329604;28;20745;-80
2021/09/15 19:01:44;;;;;;;10.00;9.10;;;23.70;45.30;;;;;;10341142;28;20239;-80
2021/09/15 19:06:55;;;;;;;11.60;10.60;;;23.60;45.10;;;;;;10357876;28;20233;-74
2021/09/15 19:12:02;;;;;;;10.10;9.20;;;23.60;44.80;;;;;;10320217;28;20767;-74
2021/09/15 19:17:09;;;;;;;11.33;10.27;;;23.50;45.30;;;;;;10332767;28;20229;-74
2021/09/15 19:22:12;;;;;;;6.70;6.20;;;23.50;46.50;;;;;;10315151;28;20763;-75
2021/09/15 19:27:16;;;;;;;6.40;5.90;;;23.50;44.50;;;;;;10315716;28;20225;-74
2021/09/15 19:32:20;;;;;;;6.63;6.07;;;23.40;44.40;;;;;;10315023;28;20243;-73
2021/09/15 19:37:25;;;;;;;7.97;7.27;;;23.30;45.20;;;;;;10315081;28;20237;-73
2021/09/15 19:42:35;;;;;;;6.40;5.80;;;23.30;45.10;;;;;;10319707;28;20239;-73
2021/09/15 19:47:56;;;;;;;8.03;7.33;;;23.30;45.90;;;;;;10313210;28;20233;-73
2021/09/15 19:53:00;;;;;;;9.00;8.10;;;23.30;46.00;;;;;;10340987;28;20229;-73
2021/09/15 19:58:03;;;;;;;9.60;8.63;;;23.30;45.20;;;;;;10326556;28;20310;-73
2021/09/15 20:03:11;;;;;;;9.90;9.00;;;23.30;45.50;;;;;;10317690;28;20868;-73
2021/09/15 20:08:25;;;;;;;9.90;8.80;;;23.20;46.00;;;;;;10316839;28;20222;-74
2021/09/15 20:13:28;;;;;;;10.00;9.00;;;23.10;45.40;;;;;;10314510;28;20230;-75
2021/09/15 20:18:33;;;;;;;10.10;9.20;;;23.10;45.70;;;;;;10309969;28;20234;-75
2021/09/15 20:23:39;;;;;;;8.00;7.10;;;23.10;46.60;;;;;;10337386;28;20637;-76
2021/09/15 20:28:42;;;;;;;7.30;6.70;;;23.10;45.70;;;;;;10329959;28;20229;-73
2021/09/15 20:33:48;;;;;;;6.40;5.90;;;22.90;46.30;;;;;;10304097;28;20237;-73
2021/09/15 20:38:52;;;;;;;5.60;5.10;;;22.80;46.20;;;;;;10307288;28;20237;-73
2021/09/15 20:44:00;;;;;;;6.07;5.57;;;22.80;45.60;;;;;;10299828;28;20230;-74
2021/09/15 20:49:09;;;;;;;6.27;5.37;;;22.70;46.60;;;;;;10321863;28;20219;-76
2021/09/15 20:54:14;;;;;;;7.03;5.27;;;22.70;46.40;;;;;;10350793;28;20312;-75
2021/09/15 20:59:17;;;;;;;5.63;5.00;;;22.60;45.80;;;;;;10349467;28;20253;-75
2021/09/15 21:04:37;;;;;;;6.43;5.67;;;22.60;46.10;;;;;;10343867;28;20238;-78
2021/09/15 21:09:42;;;;;;;6.53;5.93;;;22.50;46.90;;;;;;10347459;28;20248;-75
2021/09/15 21:14:45;;;;;;;6.67;6.07;;;22.50;46.40;;;;;;10344478;28;20317;-78
2021/09/15 21:19:50;;;;;;;6.00;5.50;;;22.50;46.50;;;;;;10343652;28;20230;-79
2021/09/15 21:24:54;;;;;;;6.37;5.77;;;22.40;47.10;;;;;;10325660;28;20246;-78
2021/09/15 21:29:57;;;;;;;6.17;5.57;;;22.40;46.70;;;;;;10333345;28;20244;-79
2021/09/15 21:35:02;;;;;;;6.47;5.97;;;22.30;46.80;;;;;;10305173;28;20353;-74
2021/09/15 21:40:08;;;;;;;5.70;5.17;;;22.20;47.30;;;;;;10308752;28;20695;-74
2021/09/15 21:45:13;;;;;;;6.17;5.67;;;22.30;47.00;;;;;;10311760;28;20230;-74
2021/09/15 21:50:17;;;;;;;6.73;6.13;;;22.20;46.80;;;;;;10315322;28;20318;-75
2021/09/15 21:55:21;;;;;;;6.87;6.27;;;22.20;47.50;;;;;;10318876;28;20278;-74
2021/09/15 22:00:38;;;;;;;7.33;6.73;;;22.20;47.10;;;;;;10322421;28;20257;-75
2021/09/15 22:05:44;;;;;;;7.67;7.00;;;22.10;48.20;;;;;;10320661;28;20246;-75
2021/09/15 22:10:47;;;;;;;8.57;7.10;;;22.10;47.80;;;;;;10315687;28;20803;-75
2021/09/15 22:15:50;;;;;;;8.67;7.87;;;22.10;47.40;;;;;;10328589;28;20645;-74
2021/09/15 22:20:55;;;;;;;8.03;7.30;;;22.10;47.60;;;;;;10358358;28;20234;-75
2021/09/15 22:25:58;;;;;;;8.43;7.73;;;22.10;48.40;;;;;;10369975;28;20234;-75
2021/09/15 22:31:01;;;;;;;8.30;7.33;;;22.10;48.00;;;;;;10363131;28;20280;-75
2021/09/15 22:36:07;;;;;;;8.17;7.37;;;22.10;48.10;;;;;;10367006;28;20695;-75
2021/09/15 22:41:10;;;;;;;8.03;7.17;;;22.10;48.80;;;;;;10369986;28;20613;-75
2021/09/15 22:46:13;;;;;;;7.20;6.60;;;22.00;48.10;;;;;;10367352;28;20737;-76
2021/09/15 22:51:18;;;;;;;7.43;6.73;;;22.00;48.30;;;;;;10364269;28;20228;-75
2021/09/15 22:56:21;;;;;;;8.17;7.47;;;22.00;49.80;;;;;;10365945;28;20230;-75
2021/09/15 23:01:24;;;;;;;7.33;6.63;;;22.00;48.50;;;;;;10365675;28;20252;-75
2021/09/15 23:06:29;;;;;;;8.70;7.90;;;22.00;48.50;;;;;;10363269;28;20288;-75
2021/09/15 23:11:32;;;;;;;8.97;8.17;;;22.00;50.00;;;;;;10363411;28;20221;-75
2021/09/15 23:16:35;;;;;;;8.10;7.47;;;22.00;48.80;;;;;;10364882;28;20711;-75
2021/09/15 23:21:40;;;;;;;8.50;7.80;;;22.00;48.90;;;;;;10367053;28;20217;-75
2021/09/15 23:26:43;;;;;;;8.23;7.53;;;22.00;49.70;;;;;;10367686;28;20229;-74
2021/09/15 23:31:46;;;;;;;8.27;7.53;;;22.00;49.00;;;;;;10362525;28;20241;-75
2021/09/15 23:36:51;;;;;;;8.23;7.43;;;22.00;49.00;;;;;;10369568;28;20233;-75
2021/09/15 23:41:54;;;;;;;7.93;7.23;;;22.10;49.60;;;;;;10365286;28;20237;-75
2021/09/15 23:46:57;;;;;;;7.63;6.93;;;22.10;48.90;;;;;;10369060;28;20226;-75
2021/09/15 23:52:02;;;;;;;7.43;6.80;;;22.10;48.90;;;;;;10364299;28;20234;-75
2021/09/15 23:57:05;;;;;;;9.80;6.70;;;22.10;49.40;;;;;;10369278;28;20224;-75
